Paradise, Montana
Current Conditions -  °F | °C
As of 12:53 PM on Friday 31 Oct 2014 (Local Time) from KMLP Reporting Station
Broken Clouds Broken Clouds  
Wind Chill: 10°   Ceiling: 10000
Heat Index: 10°   Visibility: 10mi
Dew Point:   Wind: 7mph
Humidity: 57%   Direction: NA
Pressure: 29.82"   Gusts: NA
Location:  47.39°N, 114.8°W
Report Text: KMLP 311853Z AUTO VRB06KT 10SM SCT080 BKN100 BKN120 10/02 A2982 RMK AO2 SLP036 T01000017
Loading
Personal Weather Stations






























Interactive Weather Map
Tropical Storm Tracking
New forecast layout! Learn more

10-Day Weather Forecast

Advertisements
Track Severe Weather on mobile